sensor_id;sensor_type;location;lat;lon;timestamp;temperature;humidity
2497;DHT22;1259;48.306;14.374;2023-06-24T00:01:59;16.00;99.90
2497;DHT22;1259;48.306;14.374;2023-06-24T00:04:26;16.10;99.90
2497;DHT22;1259;48.306;14.374;2023-06-24T00:06:54;16.10;99.90
2497;DHT22;1259;48.306;14.374;2023-06-24T00:09:24;16.00;99.90
2497;DHT22;1259;48.306;14.374;2023-06-24T00:11:51;16.10;99.90
2497;DHT22;1259;48.306;14.374;2023-06-24T00:14:18;16.00;99.90
2497;DHT22;1259;48.306;14.374;2023-06-24T00:16:46;15.90;99.90
2497;DHT22;1259;48.306;14.374;2023-06-24T00:19:17;16.00;99.90
2497;DHT22;1259;48.306;14.374;2023-06-24T00:21:44;15.90;99.90
2497;DHT22;1259;48.306;14.374;2023-06-24T00:24:12;15.90;99.90
2497;DHT22;1259;48.306;14.374;2023-06-24T00:26:39;15.80;99.90
2497;DHT22;1259;48.306;14.374;2023-06-24T00:29:06;15.80;99.90
2497;DHT22;1259;48.306;14.374;2023-06-24T00:31:32;15.70;99.90
2497;DHT22;1259;48.306;14.374;2023-06-24T00:33:59;15.70;99.90
2497;DHT22;1259;48.306;14.374;2023-06-24T00:36:26;15.80;99.90
2497;DHT22;1259;48.306;14.374;2023-06-24T00:38:55;15.80;99.90
2497;DHT22;1259;48.306;14.374;2023-06-24T00:41:23;15.80;99.90
2497;DHT22;1259;48.306;14.374;2023-06-24T00:43:50;15.70;99.90
2497;DHT22;1259;48.306;14.374;2023-06-24T00:46:17;15.60;99.90
2497;DHT22;1259;48.306;14.374;2023-06-24T00:48:45;15.60;99.90
2497;DHT22;1259;48.306;14.374;2023-06-24T00:51:11;15.50;99.90
2497;DHT22;1259;48.306;14.374;2023-06-24T00:53:38;15.60;99.90
2497;DHT22;1259;48.306;14.374;2023-06-24T00:56:05;15.50;99.90
2497;DHT22;1259;48.306;14.374;2023-06-24T00:58:33;15.50;99.90
2497;DHT22;1259;48.306;14.374;2023-06-24T01:01:00;15.50;99.90
2497;DHT22;1259;48.306;14.374;2023-06-24T01:03:28;15.40;99.90
2497;DHT22;1259;48.306;14.374;2023-06-24T01:05:55;15.50;99.90
2497;DHT22;1259;48.306;14.374;2023-06-24T01:08:21;15.30;99.90
2497;DHT22;1259;48.306;14.374;2023-06-24T01:10:49;15.40;99.90
2497;DHT22;1259;48.306;14.374;2023-06-24T01:13:16;15.30;99.90
2497;DHT22;1259;48.306;14.374;2023-06-24T01:15:44;15.30;99.90
2497;DHT22;1259;48.306;14.374;2023-06-24T01:18:13;15.30;99.90
2497;DHT22;1259;48.306;14.374;2023-06-24T01:20:47;15.40;99.90
2497;DHT22;1259;48.306;14.374;2023-06-24T01:23:20;15.40;99.90
2497;DHT22;1259;48.306;14.374;2023-06-24T01:25:59;15.30;99.90
2497;DHT22;1259;48.306;14.374;2023-06-24T01:31:07;15.40;99.90
2497;DHT22;1259;48.306;14.374;2023-06-24T01:33:38;15.20;99.90
2497;DHT22;1259;48.306;14.374;2023-06-24T01:36:08;15.20;99.90
2497;DHT22;1259;48.306;14.374;2023-06-24T01:38:36;15.20;99.90
2497;DHT22;1259;48.306;14.374;2023-06-24T01:41:03;15.20;99.90
2497;DHT22;1259;48.306;14.374;2023-06-24T01:43:31;15.20;99.90
2497;DHT22;1259;48.306;14.374;2023-06-24T01:45:58;15.30;99.90
2497;DHT22;1259;48.306;14.374;2023-06-24T01:48:27;15.30;99.90
2497;DHT22;1259;48.306;14.374;2023-06-24T01:50:57;15.30;99.90
2497;DHT22;1259;48.306;14.374;2023-06-24T01:53:25;15.30;99.90
2497;DHT22;1259;48.306;14.374;2023-06-24T01:55:53;15.20;99.90
2497;DHT22;1259;48.306;14.374;2023-06-24T01:58:20;15.20;99.90
2497;DHT22;1259;48.306;14.374;2023-06-24T02:00:48;15.20;99.90
2497;DHT22;1259;48.306;14.374;2023-06-24T02:03:15;15.20;99.90
2497;DHT22;1259;48.306;14.374;2023-06-24T02:05:42;15.10;99.90
2497;DHT22;1259;48.306;14.374;2023-06-24T02:08:11;15.10;99.90
2497;DHT22;1259;48.306;14.374;2023-06-24T02:10:39;15.10;99.90
2497;DHT22;1259;48.306;14.374;2023-06-24T02:13:07;15.20;99.90
2497;DHT22;1259;48.306;14.374;2023-06-24T02:15:34;15.10;99.90
2497;DHT22;1259;48.306;14.374;2023-06-24T02:18:01;15.20;99.90
2497;DHT22;1259;48.306;14.374;2023-06-24T02:20:28;15.10;99.90
2497;DHT22;1259;48.306;14.374;2023-06-24T02:22:56;15.20;99.90
2497;DHT22;1259;48.306;14.374;2023-06-24T02:25:25;15.20;99.90
2497;DHT22;1259;48.306;14.374;2023-06-24T02:27:52;15.30;99.90
2497;DHT22;1259;48.306;14.374;2023-06-24T02:30:19;15.20;99.90
2497;DHT22;1259;48.306;14.374;2023-06-24T02:32:47;15.30;99.90
2497;DHT22;1259;48.306;14.374;2023-06-24T02:35:13;15.30;99.90
2497;DHT22;1259;48.306;14.374;2023-06-24T02:37:40;15.30;99.90
2497;DHT22;1259;48.306;14.374;2023-06-24T02:40:07;15.20;99.90
2497;DHT22;1259;48.306;14.374;2023-06-24T02:42:36;15.20;99.90
2497;DHT22;1259;48.306;14.374;2023-06-24T02:45:03;15.30;99.90
2497;DHT22;1259;48.306;14.374;2023-06-24T02:47:31;15.30;99.90
2497;DHT22;1259;48.306;14.374;2023-06-24T02:49:58;15.20;99.90
2497;DHT22;1259;48.306;14.374;2023-06-24T02:52:25;15.10;99.90
2497;DHT22;1259;48.306;14.374;2023-06-24T02:54:54;15.10;99.90
2497;DHT22;1259;48.306;14.374;2023-06-24T02:57:21;15.10;99.90
2497;DHT22;1259;48.306;14.374;2023-06-24T02:59:50;15.10;99.90
2497;DHT22;1259;48.306;14.374;2023-06-24T03:02:17;15.10;99.90
2497;DHT22;1259;48.306;14.374;2023-06-24T03:04:43;15.00;99.90
2497;DHT22;1259;48.306;14.374;2023-06-24T03:07:10;15.00;99.90
2497;DHT22;1259;48.306;14.374;2023-06-24T03:09:37;15.00;99.90
2497;DHT22;1259;48.306;14.374;2023-06-24T03:12:05;14.90;99.90
2497;DHT22;1259;48.306;14.374;2023-06-24T03:14:32;15.00;99.90
2497;DHT22;1259;48.306;14.374;2023-06-24T03:17:00;15.00;99.90
2497;DHT22;1259;48.306;14.374;2023-06-24T03:19:26;15.10;99.90
2497;DHT22;1259;48.306;14.374;2023-06-24T03:21:53;15.10;99.90
2497;DHT22;1259;48.306;14.374;2023-06-24T03:24:20;15.00;99.90
2497;DHT22;1259;48.306;14.374;2023-06-24T03:26:47;15.00;99.90
2497;DHT22;1259;48.306;14.374;2023-06-24T03:29:15;15.00;99.90
2497;DHT22;1259;48.306;14.374;2023-06-24T03:31:42;15.00;99.90
2497;DHT22;1259;48.306;14.374;2023-06-24T03:34:10;15.00;99.90
2497;DHT22;1259;48.306;14.374;2023-06-24T03:36:37;15.00;99.90
2497;DHT22;1259;48.306;14.374;2023-06-24T03:39:04;15.00;99.90
2497;DHT22;1259;48.306;14.374;2023-06-24T03:41:32;15.10;99.90
2497;DHT22;1259;48.306;14.374;2023-06-24T03:43:58;15.10;99.90
2497;DHT22;1259;48.306;14.374;2023-06-24T03:46:25;15.00;99.90
2497;DHT22;1259;48.306;14.374;2023-06-24T03:48:52;15.00;99.90
2497;DHT22;1259;48.306;14.374;2023-06-24T03:51:20;15.10;99.90
2497;DHT22;1259;48.306;14.374;2023-06-24T03:53:46;14.80;99.90
2497;DHT22;1259;48.306;14.374;2023-06-24T03:56:13;14.80;99.90
2497;DHT22;1259;48.306;14.374;2023-06-24T03:58:43;14.80;99.90
2497;DHT22;1259;48.306;14.374;2023-06-24T04:01:09;15.00;99.90
2497;DHT22;1259;48.306;14.374;2023-06-24T04:03:36;14.90;99.90
2497;DHT22;1259;48.306;14.374;2023-06-24T04:06:03;15.00;99.90
2497;DHT22;1259;48.306;14.374;2023-06-24T04:08:31;14.90;99.90
2497;DHT22;1259;48.306;14.374;2023-06-24T04:10:58;14.90;99.90
2497;DHT22;1259;48.306;14.374;2023-06-24T04:13:25;15.00;99.90
2497;DHT22;1259;48.306;14.374;2023-06-24T04:15:52;15.00;99.90
2497;DHT22;1259;48.306;14.374;2023-06-24T04:18:19;15.00;99.90
2497;DHT22;1259;48.306;14.374;2023-06-24T04:20:46;15.20;99.90
2497;DHT22;1259;48.306;14.374;2023-06-24T04:23:13;15.00;99.90
2497;DHT22;1259;48.306;14.374;2023-06-24T04:25:41;15.00;99.90
2497;DHT22;1259;48.306;14.374;2023-06-24T04:28:08;15.00;99.90
2497;DHT22;1259;48.306;14.374;2023-06-24T04:30:35;15.10;99.90
2497;DHT22;1259;48.306;14.374;2023-06-24T04:33:04;15.00;99.90
2497;DHT22;1259;48.306;14.374;2023-06-24T04:35:32;15.00;99.90
2497;DHT22;1259;48.306;14.374;2023-06-24T04:37:59;15.00;99.90
2497;DHT22;1259;48.306;14.374;2023-06-24T04:40:26;15.00;99.90
2497;DHT22;1259;48.306;14.374;2023-06-24T04:42:54;15.20;99.90
2497;DHT22;1259;48.306;14.374;2023-06-24T04:45:20;15.20;99.90
2497;DHT22;1259;48.306;14.374;2023-06-24T04:47:47;15.00;99.90
2497;DHT22;1259;48.306;14.374;2023-06-24T04:50:14;15.10;99.90
2497;DHT22;1259;48.306;14.374;2023-06-24T04:52:40;15.10;99.90
2497;DHT22;1259;48.306;14.374;2023-06-24T04:55:07;15.10;99.90
2497;DHT22;1259;48.306;14.374;2023-06-24T04:57:34;15.10;99.90
2497;DHT22;1259;48.306;14.374;2023-06-24T05:00:03;15.00;99.90
2497;DHT22;1259;48.306;14.374;2023-06-24T05:02:30;15.00;99.90
2497;DHT22;1259;48.306;14.374;2023-06-24T05:04:56;15.00;99.90
2497;DHT22;1259;48.306;14.374;2023-06-24T05:07:23;15.10;99.90
2497;DHT22;1259;48.306;14.374;2023-06-24T05:09:49;15.00;99.90
2497;DHT22;1259;48.306;14.374;2023-06-24T05:12:17;15.00;99.90
2497;DHT22;1259;48.306;14.374;2023-06-24T05:14:43;15.00;99.90
2497;DHT22;1259;48.306;14.374;2023-06-24T05:17:12;15.00;99.90
2497;DHT22;1259;48.306;14.374;2023-06-24T05:19:38;15.00;99.90
2497;DHT22;1259;48.306;14.374;2023-06-24T05:22:05;15.00;99.90
2497;DHT22;1259;48.306;14.374;2023-06-24T05:24:32;15.10;99.90
2497;DHT22;1259;48.306;14.374;2023-06-24T05:27:03;15.10;99.90
2497;DHT22;1259;48.306;14.374;2023-06-24T05:29:29;15.10;99.90
2497;DHT22;1259;48.306;14.374;2023-06-24T05:31:56;15.00;99.90
2497;DHT22;1259;48.306;14.374;2023-06-24T05:34:25;15.00;99.90
2497;DHT22;1259;48.306;14.374;2023-06-24T05:36:51;15.00;99.90
2497;DHT22;1259;48.306;14.374;2023-06-24T05:39:19;15.10;99.90
2497;DHT22;1259;48.306;14.374;2023-06-24T05:41:46;15.10;99.90
2497;DHT22;1259;48.306;14.374;2023-06-24T05:44:14;15.10;99.90
2497;DHT22;1259;48.306;14.374;2023-06-24T05:46:43;15.10;99.90
2497;DHT22;1259;48.306;14.374;2023-06-24T05:49:09;15.00;99.90
2497;DHT22;1259;48.306;14.374;2023-06-24T05:51:37;15.00;99.90
2497;DHT22;1259;48.306;14.374;2023-06-24T05:54:04;14.90;99.90
2497;DHT22;1259;48.306;14.374;2023-06-24T05:56:33;14.90;99.90
2497;DHT22;1259;48.306;14.374;2023-06-24T05:58:59;14.90;99.90
2497;DHT22;1259;48.306;14.374;2023-06-24T06:01:26;14.80;99.90
2497;DHT22;1259;48.306;14.374;2023-06-24T06:03:53;14.70;99.90
2497;DHT22;1259;48.306;14.374;2023-06-24T06:06:19;14.80;99.90
2497;DHT22;1259;48.306;14.374;2023-06-24T06:08:48;14.80;99.90
2497;DHT22;1259;48.306;14.374;2023-06-24T06:11:14;14.80;99.90
2497;DHT22;1259;48.306;14.374;2023-06-24T06:13:41;14.80;99.90
2497;DHT22;1259;48.306;14.374;2023-06-24T06:16:08;14.80;99.90
2497;DHT22;1259;48.306;14.374;2023-06-24T06:18:34;14.80;99.90
2497;DHT22;1259;48.306;14.374;2023-06-24T06:21:01;14.80;99.90
2497;DHT22;1259;48.306;14.374;2023-06-24T06:23:28;14.80;99.90
2497;DHT22;1259;48.306;14.374;2023-06-24T06:25:56;14.70;99.90
2497;DHT22;1259;48.306;14.374;2023-06-24T06:28:23;14.80;99.90
2497;DHT22;1259;48.306;14.374;2023-06-24T06:30:49;14.80;99.90
2497;DHT22;1259;48.306;14.374;2023-06-24T06:33:16;14.80;99.90
2497;DHT22;1259;48.306;14.374;2023-06-24T06:35:43;14.80;99.90
2497;DHT22;1259;48.306;14.374;2023-06-24T06:38:09;14.90;99.90
2497;DHT22;1259;48.306;14.374;2023-06-24T06:40:36;14.90;99.90
2497;DHT22;1259;48.306;14.374;2023-06-24T06:43:04;15.00;99.90
2497;DHT22;1259;48.306;14.374;2023-06-24T06:45:31;14.90;99.90
2497;DHT22;1259;48.306;14.374;2023-06-24T06:47:57;14.90;99.90
2497;DHT22;1259;48.306;14.374;2023-06-24T06:50:24;15.00;99.90
2497;DHT22;1259;48.306;14.374;2023-06-24T06:52:51;15.00;99.90
2497;DHT22;1259;48.306;14.374;2023-06-24T06:55:17;14.90;99.90
2497;DHT22;1259;48.306;14.374;2023-06-24T06:57:44;15.00;99.90
2497;DHT22;1259;48.306;14.374;2023-06-24T07:00:12;15.10;99.90
2497;DHT22;1259;48.306;14.374;2023-06-24T07:02:39;15.10;99.90
2497;DHT22;1259;48.306;14.374;2023-06-24T07:05:06;15.00;99.90
2497;DHT22;1259;48.306;14.374;2023-06-24T07:07:36;15.10;99.90
2497;DHT22;1259;48.306;14.374;2023-06-24T07:10:02;15.10;99.90
2497;DHT22;1259;48.306;14.374;2023-06-24T07:12:29;15.00;99.90
2497;DHT22;1259;48.306;14.374;2023-06-24T07:14:56;15.00;99.90
2497;DHT22;1259;48.306;14.374;2023-06-24T07:17:24;15.00;99.90
2497;DHT22;1259;48.306;14.374;2023-06-24T07:19:51;15.00;99.90
2497;DHT22;1259;48.306;14.374;2023-06-24T07:22:17;15.00;99.90
2497;DHT22;1259;48.306;14.374;2023-06-24T07:24:44;15.10;99.90
2497;DHT22;1259;48.306;14.374;2023-06-24T07:27:11;15.00;99.90
2497;DHT22;1259;48.306;14.374;2023-06-24T07:29:37;15.00;99.90
2497;DHT22;1259;48.306;14.374;2023-06-24T07:32:04;15.10;99.90
2497;DHT22;1259;48.306;14.374;2023-06-24T07:34:34;15.20;99.90
2497;DHT22;1259;48.306;14.374;2023-06-24T07:37:00;15.20;99.90
2497;DHT22;1259;48.306;14.374;2023-06-24T07:39:27;15.10;99.90
2497;DHT22;1259;48.306;14.374;2023-06-24T07:41:54;15.10;99.90
2497;DHT22;1259;48.306;14.374;2023-06-24T07:44:20;15.20;99.90
2497;DHT22;1259;48.306;14.374;2023-06-24T07:46:49;15.20;99.90
2497;DHT22;1259;48.306;14.374;2023-06-24T07:49:16;15.20;99.90
2497;DHT22;1259;48.306;14.374;2023-06-24T07:51:44;15.10;99.90
2497;DHT22;1259;48.306;14.374;2023-06-24T07:54:11;15.20;99.90
2497;DHT22;1259;48.306;14.374;2023-06-24T07:56:38;15.10;99.90
2497;DHT22;1259;48.306;14.374;2023-06-24T07:59:04;15.10;99.90
2497;DHT22;1259;48.306;14.374;2023-06-24T08:01:31;15.10;99.90
2497;DHT22;1259;48.306;14.374;2023-06-24T08:03:58;15.10;99.90
2497;DHT22;1259;48.306;14.374;2023-06-24T08:06:24;15.10;99.90
2497;DHT22;1259;48.306;14.374;2023-06-24T08:08:53;15.10;99.90
2497;DHT22;1259;48.306;14.374;2023-06-24T08:11:20;15.00;99.90
2497;DHT22;1259;48.306;14.374;2023-06-24T08:13:48;15.00;99.90
2497;DHT22;1259;48.306;14.374;2023-06-24T08:16:15;15.00;99.90
2497;DHT22;1259;48.306;14.374;2023-06-24T08:18:42;15.00;99.90
2497;DHT22;1259;48.306;14.374;2023-06-24T08:21:09;15.10;99.90
2497;DHT22;1259;48.306;14.374;2023-06-24T08:23:35;15.00;99.90
2497;DHT22;1259;48.306;14.374;2023-06-24T08:26:03;15.00;99.90
2497;DHT22;1259;48.306;14.374;2023-06-24T08:28:30;15.00;99.90
2497;DHT22;1259;48.306;14.374;2023-06-24T08:30:57;15.00;99.90
2497;DHT22;1259;48.306;14.374;2023-06-24T08:33:23;15.10;99.90
2497;DHT22;1259;48.306;14.374;2023-06-24T08:35:50;15.10;99.90
2497;DHT22;1259;48.306;14.374;2023-06-24T08:38:17;15.10;99.90
2497;DHT22;1259;48.306;14.374;2023-06-24T08:40:43;15.20;99.90
2497;DHT22;1259;48.306;14.374;2023-06-24T08:43:11;15.30;99.90
2497;DHT22;1259;48.306;14.374;2023-06-24T08:45:38;15.40;99.90
2497;DHT22;1259;48.306;14.374;2023-06-24T08:48:05;15.40;99.90
2497;DHT22;1259;48.306;14.374;2023-06-24T08:50:33;15.40;99.90
2497;DHT22;1259;48.306;14.374;2023-06-24T08:53:02;15.30;99.90
2497;DHT22;1259;48.306;14.374;2023-06-24T08:55:29;15.30;99.90
2497;DHT22;1259;48.306;14.374;2023-06-24T08:57:57;15.30;99.90
2497;DHT22;1259;48.306;14.374;2023-06-24T09:00:25;15.20;99.90
2497;DHT22;1259;48.306;14.374;2023-06-24T09:02:52;15.20;99.90
2497;DHT22;1259;48.306;14.374;2023-06-24T09:05:19;15.30;99.90
2497;DHT22;1259;48.306;14.374;2023-06-24T09:07:45;15.30;99.90
2497;DHT22;1259;48.306;14.374;2023-06-24T09:10:19;15.20;99.90
2497;DHT22;1259;48.306;14.374;2023-06-24T09:12:55;15.30;99.90
2497;DHT22;1259;48.306;14.374;2023-06-24T09:15:21;15.40;99.90
2497;DHT22;1259;48.306;14.374;2023-06-24T09:17:49;15.50;99.90
2497;DHT22;1259;48.306;14.374;2023-06-24T09:20:16;15.50;99.90
2497;DHT22;1259;48.306;14.374;2023-06-24T09:22:48;15.50;99.90
2497;DHT22;1259;48.306;14.374;2023-06-24T09:25:16;15.60;99.90
2497;DHT22;1259;48.306;14.374;2023-06-24T09:27:46;15.50;99.90
2497;DHT22;1259;48.306;14.374;2023-06-24T09:30:16;15.50;99.90
2497;DHT22;1259;48.306;14.374;2023-06-24T09:32:44;15.50;99.90
2497;DHT22;1259;48.306;14.374;2023-06-24T09:35:13;15.50;99.90
2497;DHT22;1259;48.306;14.374;2023-06-24T09:37:39;15.50;99.90
2497;DHT22;1259;48.306;14.374;2023-06-24T09:40:06;15.40;99.90
2497;DHT22;1259;48.306;14.374;2023-06-24T09:42:35;15.40;99.90
2497;DHT22;1259;48.306;14.374;2023-06-24T09:45:04;15.50;99.90
2497;DHT22;1259;48.306;14.374;2023-06-24T09:47:31;15.40;99.90
2497;DHT22;1259;48.306;14.374;2023-06-24T09:49:57;15.40;99.90
2497;DHT22;1259;48.306;14.374;2023-06-24T09:52:26;15.40;99.90
2497;DHT22;1259;48.306;14.374;2023-06-24T09:54:54;15.40;99.90
2497;DHT22;1259;48.306;14.374;2023-06-24T09:57:22;15.40;99.90
2497;DHT22;1259;48.306;14.374;2023-06-24T09:59:51;15.40;99.90
2497;DHT22;1259;48.306;14.374;2023-06-24T10:02:18;15.40;99.90
2497;DHT22;1259;48.306;14.374;2023-06-24T10:04:45;15.40;99.90
2497;DHT22;1259;48.306;14.374;2023-06-24T10:07:13;15.40;99.90
2497;DHT22;1259;48.306;14.374;2023-06-24T10:09:41;15.40;99.90
2497;DHT22;1259;48.306;14.374;2023-06-24T10:12:08;15.40;99.90
2497;DHT22;1259;48.306;14.374;2023-06-24T10:14:35;15.40;99.90
2497;DHT22;1259;48.306;14.374;2023-06-24T10:17:02;15.40;99.90
2497;DHT22;1259;48.306;14.374;2023-06-24T10:19:29;15.40;99.90
2497;DHT22;1259;48.306;14.374;2023-06-24T10:21:57;15.40;99.90
2497;DHT22;1259;48.306;14.374;2023-06-24T10:24:30;15.50;99.90
2497;DHT22;1259;48.306;14.374;2023-06-24T10:27:02;15.50;99.90
2497;DHT22;1259;48.306;14.374;2023-06-24T10:29:32;15.40;99.90
2497;DHT22;1259;48.306;14.374;2023-06-24T10:32:02;15.40;99.90
2497;DHT22;1259;48.306;14.374;2023-06-24T10:34:33;15.50;99.90
2497;DHT22;1259;48.306;14.374;2023-06-24T10:37:00;15.50;99.90
2497;DHT22;1259;48.306;14.374;2023-06-24T10:45:17;15.50;99.90
2497;DHT22;1259;48.306;14.374;2023-06-24T10:47:44;15.50;99.90
2497;DHT22;1259;48.306;14.374;2023-06-24T10:50:12;15.60;99.90
2497;DHT22;1259;48.306;14.374;2023-06-24T10:52:39;15.50;99.90
2497;DHT22;1259;48.306;14.374;2023-06-24T10:55:06;15.70;99.90
2497;DHT22;1259;48.306;14.374;2023-06-24T10:57:33;15.80;99.90
2497;DHT22;1259;48.306;14.374;2023-06-24T11:00:00;15.90;99.90
2497;DHT22;1259;48.306;14.374;2023-06-24T11:02:28;15.90;99.90
2497;DHT22;1259;48.306;14.374;2023-06-24T11:04:55;15.80;99.90
2497;DHT22;1259;48.306;14.374;2023-06-24T11:07:23;15.70;99.90
2497;DHT22;1259;48.306;14.374;2023-06-24T11:09:50;15.80;99.90
2497;DHT22;1259;48.306;14.374;2023-06-24T11:12:17;15.80;99.90
2497;DHT22;1259;48.306;14.374;2023-06-24T11:14:44;15.80;99.90
2497;DHT22;1259;48.306;14.374;2023-06-24T11:17:11;15.80;99.90
2497;DHT22;1259;48.306;14.374;2023-06-24T11:19:39;15.80;99.90
2497;DHT22;1259;48.306;14.374;2023-06-24T11:22:06;15.70;99.90
2497;DHT22;1259;48.306;14.374;2023-06-24T11:24:33;15.90;99.90
2497;DHT22;1259;48.306;14.374;2023-06-24T11:26:59;15.80;99.90
2497;DHT22;1259;48.306;14.374;2023-06-24T11:29:28;15.80;99.90
2497;DHT22;1259;48.306;14.374;2023-06-24T11:31:55;15.80;99.90
2497;DHT22;1259;48.306;14.374;2023-06-24T11:34:22;15.90;99.90
2497;DHT22;1259;48.306;14.374;2023-06-24T11:36:50;16.00;99.90
2497;DHT22;1259;48.306;14.374;2023-06-24T11:39:20;16.10;99.90
2497;DHT22;1259;48.306;14.374;2023-06-24T11:41:47;16.10;99.90
2497;DHT22;1259;48.306;14.374;2023-06-24T11:44:14;16.20;99.90
2497;DHT22;1259;48.306;14.374;2023-06-24T11:46:40;16.10;99.90
2497;DHT22;1259;48.306;14.374;2023-06-24T11:49:07;16.10;99.90
2497;DHT22;1259;48.306;14.374;2023-06-24T11:51:34;16.10;99.90
2497;DHT22;1259;48.306;14.374;2023-06-24T11:54:03;16.20;99.90
2497;DHT22;1259;48.306;14.374;2023-06-24T11:56:33;16.20;99.90
2497;DHT22;1259;48.306;14.374;2023-06-24T11:59:00;16.30;99.90
2497;DHT22;1259;48.306;14.374;2023-06-24T12:01:29;16.30;99.90
2497;DHT22;1259;48.306;14.374;2023-06-24T12:03:56;16.30;99.90
2497;DHT22;1259;48.306;14.374;2023-06-24T12:06:23;16.30;99.90
2497;DHT22;1259;48.306;14.374;2023-06-24T12:08:50;16.40;99.90
2497;DHT22;1259;48.306;14.374;2023-06-24T12:11:18;16.50;99.90
2497;DHT22;1259;48.306;14.374;2023-06-24T12:13:44;16.60;99.90
2497;DHT22;1259;48.306;14.374;2023-06-24T12:16:11;16.60;99.90
2497;DHT22;1259;48.306;14.374;2023-06-24T12:18:38;16.70;99.90
2497;DHT22;1259;48.306;14.374;2023-06-24T12:21:04;16.80;99.90
2497;DHT22;1259;48.306;14.374;2023-06-24T12:23:31;17.00;99.90
2497;DHT22;1259;48.306;14.374;2023-06-24T12:25:58;17.00;99.90
2497;DHT22;1259;48.306;14.374;2023-06-24T12:28:26;17.10;99.90
2497;DHT22;1259;48.306;14.374;2023-06-24T12:30:52;17.30;99.90
2497;DHT22;1259;48.306;14.374;2023-06-24T12:33:19;17.20;99.90
2497;DHT22;1259;48.306;14.374;2023-06-24T12:35:48;17.40;99.90
2497;DHT22;1259;48.306;14.374;2023-06-24T12:38:14;17.50;99.90
2497;DHT22;1259;48.306;14.374;2023-06-24T12:40:42;17.80;99.90
2497;DHT22;1259;48.306;14.374;2023-06-24T12:43:10;17.90;99.90
2497;DHT22;1259;48.306;14.374;2023-06-24T12:45:38;18.10;99.90
2497;DHT22;1259;48.306;14.374;2023-06-24T12:48:05;18.00;99.90
2497;DHT22;1259;48.306;14.374;2023-06-24T12:50:31;18.40;99.90
2497;DHT22;1259;48.306;14.374;2023-06-24T12:52:58;18.20;99.90
2497;DHT22;1259;48.306;14.374;2023-06-24T12:55:25;18.30;99.90
2497;DHT22;1259;48.306;14.374;2023-06-24T12:57:51;18.60;99.90
2497;DHT22;1259;48.306;14.374;2023-06-24T13:00:19;18.70;99.90
2497;DHT22;1259;48.306;14.374;2023-06-24T13:02:47;18.80;99.90
2497;DHT22;1259;48.306;14.374;2023-06-24T13:05:14;18.90;99.90
2497;DHT22;1259;48.306;14.374;2023-06-24T13:07:41;19.10;99.90
2497;DHT22;1259;48.306;14.374;2023-06-24T13:10:08;19.10;99.90
2497;DHT22;1259;48.306;14.374;2023-06-24T13:12:35;19.10;99.90
2497;DHT22;1259;48.306;14.374;2023-06-24T13:15:02;19.40;99.90
2497;DHT22;1259;48.306;14.374;2023-06-24T13:17:30;19.40;99.90
2497;DHT22;1259;48.306;14.374;2023-06-24T13:19:58;19.40;99.90
2497;DHT22;1259;48.306;14.374;2023-06-24T13:22:24;19.70;99.90
2497;DHT22;1259;48.306;14.374;2023-06-24T13:24:51;19.70;99.90
2497;DHT22;1259;48.306;14.374;2023-06-24T13:27:18;19.70;99.90
2497;DHT22;1259;48.306;14.374;2023-06-24T13:29:44;19.70;99.90
2497;DHT22;1259;48.306;14.374;2023-06-24T13:32:11;19.70;99.90
2497;DHT22;1259;48.306;14.374;2023-06-24T13:34:38;20.00;99.90
2497;DHT22;1259;48.306;14.374;2023-06-24T13:37:06;20.00;99.90
2497;DHT22;1259;48.306;14.374;2023-06-24T13:39:32;20.30;99.90
2497;DHT22;1259;48.306;14.374;2023-06-24T13:41:59;20.20;99.90
2497;DHT22;1259;48.306;14.374;2023-06-24T13:44:26;20.10;99.90
2497;DHT22;1259;48.306;14.374;2023-06-24T13:46:52;20.00;99.90
2497;DHT22;1259;48.306;14.374;2023-06-24T13:49:19;20.10;99.90
2497;DHT22;1259;48.306;14.374;2023-06-24T13:51:46;19.90;99.90
2497;DHT22;1259;48.306;14.374;2023-06-24T13:54:14;20.00;99.90
2497;DHT22;1259;48.306;14.374;2023-06-24T13:56:41;20.00;99.90
2497;DHT22;1259;48.306;14.374;2023-06-24T13:59:07;20.00;99.90
2497;DHT22;1259;48.306;14.374;2023-06-24T14:01:35;19.90;99.90
2497;DHT22;1259;48.306;14.374;2023-06-24T14:04:02;19.90;99.90
2497;DHT22;1259;48.306;14.374;2023-06-24T14:06:29;20.00;99.90
2497;DHT22;1259;48.306;14.374;2023-06-24T14:08:56;20.00;99.90
2497;DHT22;1259;48.306;14.374;2023-06-24T14:11:24;20.10;99.90
2497;DHT22;1259;48.306;14.374;2023-06-24T14:13:51;20.00;99.90
2497;DHT22;1259;48.306;14.374;2023-06-24T14:16:17;20.10;99.90
2497;DHT22;1259;48.306;14.374;2023-06-24T14:18:44;20.20;99.90
2497;DHT22;1259;48.306;14.374;2023-06-24T14:21:11;20.50;99.90
2497;DHT22;1259;48.306;14.374;2023-06-24T14:23:37;20.60;99.90
2497;DHT22;1259;48.306;14.374;2023-06-24T14:26:05;20.60;99.90
2497;DHT22;1259;48.306;14.374;2023-06-24T14:28:33;20.80;99.90
2497;DHT22;1259;48.306;14.374;2023-06-24T14:31:00;20.80;99.90
2497;DHT22;1259;48.306;14.374;2023-06-24T14:33:26;20.90;99.90
2497;DHT22;1259;48.306;14.374;2023-06-24T14:35:53;20.90;99.90
2497;DHT22;1259;48.306;14.374;2023-06-24T14:38:20;20.80;99.90
2497;DHT22;1259;48.306;14.374;2023-06-24T14:40:46;20.70;99.90
2497;DHT22;1259;48.306;14.374;2023-06-24T14:43:13;20.80;99.90
2497;DHT22;1259;48.306;14.374;2023-06-24T14:45:41;20.80;99.90
2497;DHT22;1259;48.306;14.374;2023-06-24T14:48:08;20.70;99.90
2497;DHT22;1259;48.306;14.374;2023-06-24T14:50:35;20.70;99.90
2497;DHT22;1259;48.306;14.374;2023-06-24T14:53:02;20.70;99.90
2497;DHT22;1259;48.306;14.374;2023-06-24T14:55:28;20.70;99.90
2497;DHT22;1259;48.306;14.374;2023-06-24T14:57:55;20.80;99.90
2497;DHT22;1259;48.306;14.374;2023-06-24T15:00:22;20.70;99.90
2497;DHT22;1259;48.306;14.374;2023-06-24T15:02:50;20.90;99.90
2497;DHT22;1259;48.306;14.374;2023-06-24T15:05:16;20.80;99.90
2497;DHT22;1259;48.306;14.374;2023-06-24T15:07:43;20.70;99.90
2497;DHT22;1259;48.306;14.374;2023-06-24T15:10:10;20.90;99.90
2497;DHT22;1259;48.306;14.374;2023-06-24T15:12:36;20.90;99.90
2497;DHT22;1259;48.306;14.374;2023-06-24T15:15:05;20.90;99.90
2497;DHT22;1259;48.306;14.374;2023-06-24T15:17:32;20.90;99.90
2497;DHT22;1259;48.306;14.374;2023-06-24T15:20:02;21.00;99.90
2497;DHT22;1259;48.306;14.374;2023-06-24T15:22:29;20.90;99.90
2497;DHT22;1259;48.306;14.374;2023-06-24T15:24:55;20.80;99.90
2497;DHT22;1259;48.306;14.374;2023-06-24T15:27:22;20.70;99.90
2497;DHT22;1259;48.306;14.374;2023-06-24T15:29:48;20.70;99.90
2497;DHT22;1259;48.306;14.374;2023-06-24T15:32:15;20.80;99.90
2497;DHT22;1259;48.306;14.374;2023-06-24T15:34:42;20.90;99.90
2497;DHT22;1259;48.306;14.374;2023-06-24T15:37:10;20.80;99.90
2497;DHT22;1259;48.306;14.374;2023-06-24T15:39:39;20.80;99.90
2497;DHT22;1259;48.306;14.374;2023-06-24T15:42:06;20.90;99.90
2497;DHT22;1259;48.306;14.374;2023-06-24T15:44:33;21.00;99.90
2497;DHT22;1259;48.306;14.374;2023-06-24T15:46:59;21.00;99.90
2497;DHT22;1259;48.306;14.374;2023-06-24T15:49:26;21.10;99.90
2497;DHT22;1259;48.306;14.374;2023-06-24T15:51:53;21.20;99.90
2497;DHT22;1259;48.306;14.374;2023-06-24T15:54:21;21.30;99.90